Time;durP1;ratioP1;P1;durP2;ratioP2;P2;SDS_P1;SDS_P2;PMS_P1;PMS_P2;Temp;Humidity;BMP_temperature;BMP_pressure;BME280_temperature;BME280_humidity;BME280_pressure;Samples;Min_cycle;Max_cycle;Signal;HPM_P1;HPM_P2
2023/06/07 00:08:04;;;;;;;7.50;1.13;;;10.20;99.90;;;;;;5110154;28;20530;-85
2023/06/07 00:10:51;;;;;;;6.72;1.40;;;10.20;99.90;;;;;;5110106;28;20043;-87
2023/06/07 00:13:32;;;;;;;4.30;0.88;;;10.20;99.90;;;;;;5110208;28;20044;-87
2023/06/07 00:16:26;;;;;;;6.22;1.00;;;10.30;99.90;;;;;;5109843;28;20047;-87
2023/06/07 00:19:21;;;;;;;4.82;1.08;;;10.20;99.90;;;;;;5109938;28;20511;-86
2023/06/07 00:21:58;;;;;;;6.43;1.20;;;10.20;99.90;;;;;;5074001;28;20087;-88
2023/06/07 00:24:52;;;;;;;3.50;1.35;;;10.20;99.90;;;;;;5109793;28;20062;-87
2023/06/07 00:43:49;;;;;;;7.13;1.20;;;10.10;99.90;;;;;;5103248;28;20063;-86
2023/06/07 00:46:46;;;;;;;5.45;1.30;;;10.20;99.90;;;;;;5089053;28;20052;-87
2023/06/07 00:49:44;;;;;;;9.20;1.42;;;10.20;99.90;;;;;;5084467;28;20044;-87
2023/06/07 00:52:32;;;;;;;7.30;1.20;;;10.20;99.90;;;;;;5075369;28;20047;-88
2023/06/07 00:55:26;;;;;;;2.70;0.80;;;10.20;99.90;;;;;;5062739;28;20502;-88
2023/06/07 00:58:15;;;;;;;;;;;10.20;99.90;;;;;;5055560;28;20343;-88
2023/06/07 01:00:51;;;;;;;8.82;1.42;;;10.30;99.90;;;;;;5054590;28;19925;-88
2023/06/07 01:07:32;;;;;;;5.78;1.20;;;10.20;99.90;;;;;;5055248;28;20036;-87
2023/06/07 01:10:14;;;;;;;5.50;1.30;;;10.20;99.90;;;;;;5055172;28;20064;-85
2023/06/07 01:12:56;;;;;;;8.35;1.38;;;10.20;99.90;;;;;;5054942;28;20405;-86
2023/06/07 01:15:37;;;;;;;1.98;0.73;;;10.30;99.90;;;;;;5059031;28;20041;-85
2023/06/07 01:18:32;;;;;;;6.03;1.10;;;10.30;99.90;;;;;;5074723;28;20055;-83
2023/06/07 01:21:19;;;;;;;5.47;1.35;;;10.20;99.90;;;;;;5056353;28;20110;-81
2023/06/07 01:23:56;;;;;;;8.73;1.05;;;10.30;99.90;;;;;;5071759;28;20049;-85
2023/06/07 01:26:40;;;;;;;4.40;1.27;;;10.30;99.90;;;;;;5072778;28;20041;-82
2023/06/07 01:29:22;;;;;;;6.35;2.38;;;10.30;99.90;;;;;;5069195;28;20045;-86
2023/06/07 01:32:17;;;;;;;5.78;1.20;;;10.40;99.90;;;;;;5055049;28;20033;-85
2023/06/07 01:35:00;;;;;;;5.28;1.00;;;10.40;99.90;;;;;;5054641;28;20048;-87
2023/06/07 01:37:51;;;;;;;6.95;2.30;;;10.40;99.90;;;;;;5054573;28;20045;-82
2023/06/07 01:40:36;;;;;;;11.07;1.45;;;10.50;99.90;;;;;;5063205;28;20112;-81
2023/06/07 01:43:18;;;;;;;6.38;1.20;;;10.40;99.90;;;;;;5072605;28;20076;-81
2023/06/07 01:46:04;;;;;;;7.85;1.40;;;10.50;99.90;;;;;;5058960;28;20085;-83
2023/06/07 01:49:05;;;;;;;4.20;1.38;;;10.50;99.90;;;;;;5094476;28;20122;-82
2023/06/07 01:51:50;;;;;;;;;;;;;;;;;;;;;
2023/06/07 01:54:41;;;;;;;6.05;1.55;;;10.50;99.90;;;;;;5094446;28;20126;-80
2023/06/07 01:57:36;;;;;;;3.47;1.10;;;10.50;99.90;;;;;;5086109;28;20040;-82
2023/06/07 02:01:14;;;;;;;5.35;1.15;;;10.40;99.90;;;;;;5074069;28;20041;-82
2023/06/07 02:04:07;;;;;;;3.60;1.33;;;10.50;99.90;;;;;;5012114;28;20045;-81
2023/06/07 02:07:06;;;;;;;3.40;1.27;;;10.50;99.90;;;;;;5013653;28;20041;-80
2023/06/07 02:13:46;;;;;;;6.47;1.77;;;10.50;99.90;;;;;;5016119;28;20512;-80
2023/06/07 02:16:42;;;;;;;6.90;1.35;;;10.60;99.90;;;;;;5031866;28;20124;-82
2023/06/07 02:19:26;;;;;;;6.60;1.30;;;10.60;99.90;;;;;;5031638;28;20049;-81
2023/06/07 02:22:06;;;;;;;8.95;1.25;;;10.50;99.90;;;;;;5015046;28;20045;-82
2023/06/07 02:24:56;;;;;;;7.60;1.35;;;10.50;99.90;;;;;;5016208;28;20107;-82
2023/06/07 02:27:35;;;;;;;3.88;1.00;;;10.50;99.90;;;;;;5016589;28;20053;-81
2023/06/07 02:30:10;;;;;;;4.95;1.00;;;10.50;99.90;;;;;;5014900;28;20064;-81
2023/06/07 02:36:42;;;;;;;2.97;0.80;;;10.60;99.90;;;;;;5026002;28;20132;-81
2023/06/07 02:39:30;;;;;;;6.88;1.10;;;10.50;99.90;;;;;;5073000;28;20044;-82
2023/06/07 02:42:11;;;;;;;7.82;1.40;;;10.50;99.90;;;;;;5072187;28;20044;-82
2023/06/07 02:44:55;;;;;;;5.28;1.10;;;10.50;99.90;;;;;;5065345;28;20634;-81
2023/06/07 02:47:37;;;;;;;7.00;1.52;;;10.50;99.90;;;;;;5092335;28;20062;-82
2023/06/07 02:50:14;;;;;;;8.93;1.50;;;11.00;99.90;;;;;;5092398;28;20047;-84
2023/06/07 02:52:57;;;;;;;3.83;1.15;;;10.40;99.90;;;;;;5092537;28;20422;-82
2023/06/07 02:59:32;;;;;;;4.63;1.20;;;10.40;99.90;;;;;;5080875;28;20135;-82
2023/06/07 03:02:16;;;;;;;5.00;1.25;;;10.50;99.90;;;;;;5071977;28;20063;-82
2023/06/07 03:05:14;;;;;;;;;;;;;;;;;;;;;
2023/06/07 03:08:02;;;;;;;5.63;1.70;;;10.50;99.90;;;;;;5071804;28;20052;-81
2023/06/07 03:10:41;;;;;;;8.88;2.15;;;10.50;99.90;;;;;;5071539;28;20048;-81
2023/06/07 03:13:29;;;;;;;11.65;1.83;;;10.50;99.90;;;;;;5072693;28;20048;-82
2023/06/07 03:16:16;;;;;;;4.43;1.13;;;10.50;99.90;;;;;;5072298;28;20121;-80
2023/06/07 03:30:27;;;;;;;6.32;1.10;;;10.70;99.90;;;;;;5072610;28;20071;-81
2023/06/07 03:33:02;;;;;;;7.28;1.17;;;10.80;99.90;;;;;;5085237;28;20052;-81
2023/06/07 03:35:32;;;;;;;6.30;1.08;;;10.80;99.90;;;;;;5070833;28;20033;-81
2023/06/07 03:38:03;;;;;;;5.82;1.40;;;10.80;99.90;;;;;;5072281;28;20123;-82
2023/06/07 03:40:37;;;;;;;6.03;1.10;;;10.80;99.90;;;;;;5069922;28;20063;-82
2023/06/07 03:43:16;;;;;;;3.42;0.93;;;10.90;99.90;;;;;;5077655;28;20044;-81
2023/06/07 03:45:55;;;;;;;6.15;1.45;;;10.90;99.90;;;;;;5111518;28;20077;-81
2023/06/07 03:48:27;;;;;;;3.83;1.10;;;10.90;99.90;;;;;;5112873;28;20051;-81
2023/06/07 03:55:07;;;;;;;4.03;1.13;;;11.00;99.90;;;;;;5112803;28;20122;-80
2023/06/07 03:57:50;;;;;;;4.95;1.20;;;11.00;99.90;;;;;;5094994;28;20079;-80
2023/06/07 04:00:32;;;;;;;7.88;1.33;;;11.10;99.90;;;;;;5096354;28;20118;-82
2023/06/07 04:03:11;;;;;;;4.85;1.40;;;11.10;99.90;;;;;;5074349;28;20126;-81
2023/06/07 04:05:47;;;;;;;9.77;2.00;;;11.10;99.90;;;;;;5074600;28;20055;-83
2023/06/07 04:08:36;;;;;;;5.30;1.58;;;11.20;99.90;;;;;;5086061;28;20537;-84
2023/06/07 04:11:09;;;;;;;5.28;1.15;;;11.20;99.90;;;;;;5094266;28;20046;-81
2023/06/07 04:13:44;;;;;;;4.25;1.23;;;11.20;99.90;;;;;;5094364;28;20058;-80
2023/06/07 04:16:19;;;;;;;6.38;1.50;;;11.30;99.90;;;;;;5103478;28;20041;-83
2023/06/07 04:18:56;;;;;;;4.97;1.65;;;11.30;99.90;;;;;;5075318;28;20131;-80
2023/06/07 04:21:34;;;;;;;2.47;1.15;;;11.30;99.90;;;;;;5091992;28;20399;-81
2023/06/07 04:24:12;;;;;;;4.55;1.00;;;11.40;99.90;;;;;;5091549;28;20539;-81
2023/06/07 04:26:55;;;;;;;3.90;1.10;;;11.40;99.90;;;;;;5098373;28;20422;-82
2023/06/07 04:29:49;;;;;;;7.68;1.38;;;11.40;99.90;;;;;;5114367;28;20035;-84
2023/06/07 04:32:25;;;;;;;6.47;1.30;;;11.40;99.90;;;;;;5116256;28;20054;-87
2023/06/07 04:34:58;;;;;;;6.63;1.20;;;11.40;99.90;;;;;;5098185;28;20039;-81
2023/06/07 04:41:00;;;;;;;5.95;1.10;;;11.50;99.90;;;;;;5102809;28;19927;-87
2023/06/07 04:43:38;;;;;;;2.65;1.10;;;11.60;99.90;;;;;;5096076;28;20089;-87
2023/06/07 04:46:27;;;;;;;3.10;0.88;;;11.60;99.90;;;;;;5077688;28;20437;-85
2023/06/07 04:48:57;;;;;;;7.70;1.65;;;11.60;99.90;;;;;;5077981;28;20417;-84
2023/06/07 04:51:31;;;;;;;6.15;0.90;;;11.60;99.90;;;;;;5077317;28;20048;-86
2023/06/07 04:54:08;;;;;;;3.40;0.90;;;11.70;99.90;;;;;;5077326;28;20128;-86
2023/06/07 04:56:42;;;;;;;5.00;1.40;;;11.70;99.90;;;;;;5097495;28;20043;-85
2023/06/07 04:59:26;;;;;;;6.13;1.30;;;11.70;99.90;;;;;;5115160;28;20066;-86
2023/06/07 05:09:20;;;;;;;9.48;2.45;;;11.80;99.90;;;;;;5103402;28;20032;-85
2023/06/07 05:11:59;;;;;;;8.18;1.30;;;11.90;99.90;;;;;;5095193;28;20124;-84
2023/06/07 05:14:30;;;;;;;3.70;1.30;;;12.00;99.90;;;;;;5105365;28;20036;-84
2023/06/07 05:17:19;;;;;;;6.43;1.40;;;12.00;99.90;;;;;;5077310;28;20044;-83
2023/06/07 05:20:12;;;;;;;;;;;;;;;;;;;;;
2023/06/07 05:23:02;;;;;;;4.05;1.13;;;12.00;99.90;;;;;;5094997;28;20051;-82
2023/06/07 05:25:50;;;;;;;4.38;1.38;;;12.10;99.90;;;;;;5105287;28;20051;-83
2023/06/07 05:36:36;;;;;;;8.93;1.45;;;12.30;99.90;;;;;;5105631;28;20042;-82
2023/06/07 05:39:07;;;;;;;7.72;2.05;;;12.30;99.90;;;;;;5093920;28;20050;-84
2023/06/07 05:41:42;;;;;;;6.55;1.67;;;12.30;99.90;;;;;;5095994;28;20388;-81
2023/06/07 05:44:21;;;;;;;7.60;1.73;;;12.40;99.90;;;;;;5114711;28;20058;-83
2023/06/07 05:47:08;;;;;;;3.95;1.33;;;12.40;99.90;;;;;;5096756;28;20079;-86
2023/06/07 05:49:44;;;;;;;7.22;1.38;;;12.50;99.90;;;;;;5107142;28;20366;-82
2023/06/07 05:52:26;;;;;;;9.88;2.05;;;12.50;99.90;;;;;;5100193;28;20046;-82
2023/06/07 05:54:58;;;;;;;7.05;1.40;;;;;;;;;;5091745;28;20051;-80
2023/06/07 05:58:03;;;;;;;4.93;1.10;;;;;;;;;;5114760;28;20050;-81
2023/06/07 06:00:47;;;;;;;;;;;;;;;;;;5114564;28;20055;-81
2023/06/07 06:03:29;;;;;;;;;;;;;;;;;;;;;
2023/06/07 06:06:19;;;;;;;6.03;1.80;;;;;;;;;;5112730;28;20474;-82
2023/06/07 06:08:51;;;;;;;3.95;1.40;;;;;;;;;;5092334;28;20042;-81
2023/06/07 06:11:44;;;;;;;8.65;1.40;;;;;;;;;;5094096;28;20044;-82
2023/06/07 06:14:25;;;;;;;3.65;1.02;;;;;;;;;;5026781;28;20051;-81
2023/06/07 06:16:59;;;;;;;9.90;1.67;;;;;;;;;;5077091;28;20032;-81
2023/06/07 06:26:27;;;;;;;5.47;1.42;;;;;;;;;;5095177;28;20074;-81
2023/06/07 06:29:12;;;;;;;;;;;;;;;;;;;;;
2023/06/07 06:31:44;;;;;;;5.97;1.38;;;;;;;;;;5088348;28;20056;-79
2023/06/07 06:34:32;;;;;;;;;;;;;;;;;;5094374;28;20473;-82
2023/06/07 06:37:12;;;;;;;3.92;1.30;;;;;;;;;;5088807;28;19919;-80
2023/06/07 06:39:48;;;;;;;7.25;1.40;;;;;;;;;;5090316;28;20069;-81
2023/06/07 06:42:32;;;;;;;3.72;1.42;;;;;;;;;;5094851;28;20036;-81
2023/06/07 06:45:08;;;;;;;4.10;1.13;;;;;;;;;;5093443;28;20131;-82
2023/06/07 06:59:03;;;;;;;3.78;1.05;;;;;;;;;;5097914;28;20043;-84
2023/06/07 07:02:00;;;;;;;;;;;;;;;;;;;;;
2023/06/07 07:04:31;;;;;;;5.20;1.30;;;;;;;;;;5092674;28;20059;-87
2023/06/07 07:07:27;;;;;;;6.10;1.70;;;;;;;;;;5082228;28;20131;-84
2023/06/07 07:10:12;;;;;;;8.52;1.42;;;;;;;;;;5084842;28;20044;-85
2023/06/07 07:12:47;;;;;;;3.42;1.00;;;;;;;;;;5111495;28;20036;-85
2023/06/07 07:15:14;;;;;;;5.95;1.00;;;;;;;;;;5091258;28;20118;-89
2023/06/07 07:17:54;;;;;;;3.92;1.15;;;;;;;;;;5082688;28;20395;-84
2023/06/07 07:20:34;;;;;;;7.72;1.30;;;;;;;;;;5095568;28;20051;-82
2023/06/07 07:23:12;;;;;;;5.40;1.25;;;;;;;;;;5092233;28;20032;-83
2023/06/07 07:25:49;;;;;;;8.10;1.48;;;;;;;;;;5102139;28;20116;-82
2023/06/07 07:28:37;;;;;;;7.85;1.30;;;;;;;;;;5110662;28;20067;-87
2023/06/07 07:31:08;;;;;;;;;;;;;;;;;;5099216;28;20484;-85
2023/06/07 07:33:43;;;;;;;7.65;1.17;;;;;;;;;;5086663;28;19919;-84
2023/06/07 07:36:23;;;;;;;6.37;1.83;;;;;;;;;;5080236;28;20046;-84
2023/06/07 07:39:05;;;;;;;6.07;1.67;;;;;;;;;;5040515;28;20052;-84
2023/06/07 07:41:46;;;;;;;5.60;1.42;;;;;;;;;;5079508;28;20044;-85
2023/06/07 07:44:29;;;;;;;8.23;1.60;;;;;;;;;;5056907;28;20059;-82
2023/06/07 07:47:06;;;;;;;6.47;1.13;;;;;;;;;;5100267;28;20094;-84
2023/06/07 07:49:55;;;;;;;3.63;1.20;;;;;;;;;;5092756;28;20044;-82
2023/06/07 07:52:29;;;;;;;9.32;1.15;;;;;;;;;;5074785;28;20039;-83
2023/06/07 07:55:08;;;;;;;5.38;1.05;;;;;;;;;;5088979;28;20048;-85
2023/06/07 07:57:43;;;;;;;6.38;1.30;;;;;;;;;;5093002;28;20044;-84
2023/06/07 08:03:43;;;;;;;6.55;1.17;;;;;;;;;;5105654;28;20042;-87
2023/06/07 08:06:32;;;;;;;3.92;1.10;;;;;;;;;;5096639;28;20119;-81
2023/06/07 08:09:16;;;;;;;4.75;1.70;;;;;;;;;;5112006;28;20058;-81
2023/06/07 08:11:53;;;;;;;7.07;1.98;;;;;;;;;;5112276;28;20059;-80
2023/06/07 08:14:27;;;;;;;10.30;1.40;;;;;;;;;;5077232;28;20048;-81
2023/06/07 08:17:01;;;;;;;7.70;1.83;;;;;;;;;;5094447;28;20052;-80
2023/06/07 08:19:43;;;;;;;8.10;1.80;;;;;;;;;;5096258;28;20126;-80
2023/06/07 08:22:10;;;;;;;4.03;1.20;;;;;;;;;;5077317;28;20048;-80
2023/06/07 08:24:43;;;;;;;9.10;2.75;;;;;;;;;;5078210;28;20044;-81
2023/06/07 08:27:19;;;;;;;4.70;1.20;;;;;;;;;;5097185;28;20105;-80
2023/06/07 08:29:50;;;;;;;5.97;1.48;;;;;;;;;;5094593;28;20051;-81
2023/06/07 08:32:34;;;;;;;2.72;1.05;;;;;;;;;;5096136;28;20036;-81
2023/06/07 08:35:16;;;;;;;7.68;1.73;;;;;;;;;;5098187;28;20036;-81
2023/06/07 08:37:48;;;;;;;8.13;2.22;;;;;;;;;;5082423;28;20147;-81
2023/06/07 08:40:22;;;;;;;9.82;1.73;;;;;;;;;;5095670;28;20048;-82
2023/06/07 09:06:11;;;;;;;;;;;;;;;;;;5086111;28;20055;-83
2023/06/07 09:08:38;;;;;;;8.32;1.70;;;;;;;;;;5070270;28;19927;-81
2023/06/07 09:11:05;;;;;;;5.80;1.42;;;;;;;;;;5112548;28;20061;-82
2023/06/07 09:13:40;;;;;;;7.65;1.85;;;;;;;;;;5108691;28;20039;-82
2023/06/07 09:16:15;;;;;;;7.30;1.67;;;;;;;;;;5115141;28;20047;-82
2023/06/07 09:18:56;;;;;;;6.60;1.40;;;;;;;;;;5080718;28;20052;-86
2023/06/07 09:21:32;;;;;;;6.20;1.35;;;;;;;;;;5097497;28;20065;-83
2023/06/07 09:24:31;;;;;;;11.05;1.90;;;;;;;;;;5097582;28;20504;-82
2023/06/07 09:27:13;;;;;;;4.70;1.25;;;;;;;;;;5095145;28;20051;-85
2023/06/07 09:29:52;;;;;;;6.45;1.75;;;;;;;;;;5066514;28;20051;-83
2023/06/07 09:32:31;;;;;;;4.90;1.60;;;;;;;;;;5096427;28;20122;-83
2023/06/07 09:35:15;;;;;;;9.25;1.45;;;;;;;;;;5077179;28;20075;-83
2023/06/07 09:38:00;;;;;;;4.22;1.50;;;;;;;;;;5102125;28;20044;-83
2023/06/07 09:40:55;;;;;;;5.10;1.48;;;;;;;;;;5096144;28;20050;-80
2023/06/07 09:43:21;;;;;;;7.45;1.85;;;;;;;;;;5105781;28;20036;-81
2023/06/07 09:45:55;;;;;;;6.57;1.73;;;;;;;;;;5089281;28;20048;-81
2023/06/07 09:48:22;;;;;;;7.50;1.60;;;;;;;;;;5094666;28;20048;-82
2023/06/07 09:51:01;;;;;;;5.43;1.58;;;;;;;;;;5059462;28;20403;-84
2023/06/07 09:53:30;;;;;;;6.75;1.63;;;;;;;;;;5059871;28;20123;-81
2023/06/07 09:55:58;;;;;;;5.30;1.50;;;;;;;;;;5094171;28;20056;-81
2023/06/07 09:58:29;;;;;;;7.30;1.83;;;;;;;;;;5094257;28;20044;-85
2023/06/07 10:00:57;;;;;;;5.28;1.65;;;;;;;;;;5094196;28;20039;-82
2023/06/07 10:03:27;;;;;;;9.60;1.35;;;;;;;;;;5094095;28;20047;-81
2023/06/07 10:05:56;;;;;;;5.55;1.77;;;;;;;;;;5094540;28;20052;-81
2023/06/07 10:08:26;;;;;;;7.18;2.03;;;;;;;;;;5075730;28;20108;-83
2023/06/07 10:10:57;;;;;;;7.50;2.17;;;;;;;;;;5101105;28;20066;-82
2023/06/07 10:13:27;;;;;;;10.02;2.35;;;;;;;;;;5114191;28;20044;-83
2023/06/07 10:15:58;;;;;;;10.30;2.65;;;;;;;;;;5114646;28;20043;-81
2023/06/07 10:18:42;;;;;;;;;;;;;;;;;;;;;
2023/06/07 10:21:17;;;;;;;6.13;1.83;;;;;;;;;;5075573;28;20040;-84
2023/06/07 10:24:04;;;;;;;6.22;2.00;;;;;;;;;;5093159;28;20048;-83
2023/06/07 10:26:52;;;;;;;6.07;1.48;;;;;;;;;;5104856;28;20044;-86
2023/06/07 10:29:30;;;;;;;6.10;2.15;;;;;;;;;;5092835;28;20101;-87
2023/06/07 10:32:23;;;;;;;4.90;1.77;;;;;;;;;;5075676;28;20044;-86
2023/06/07 10:35:03;;;;;;;7.72;1.70;;;;;;;;;;5075874;28;20059;-87
2023/06/07 10:37:56;;;;;;;3.33;1.63;;;;;;;;;;5093383;28;20044;-85
2023/06/07 10:40:28;;;;;;;5.53;1.90;;;;;;;;;;5093290;28;20036;-86
2023/06/07 10:42:59;;;;;;;6.57;1.38;;;;;;;;;;5094455;28;20051;-82
2023/06/07 10:45:28;;;;;;;4.75;1.40;;;;;;;;;;5092429;28;20051;-83
2023/06/07 11:06:14;;;;;;;7.43;1.75;;;19.50;99.90;;;;;;5109481;28;20104;-82
2023/06/07 11:09:12;;;;;;;7.80;1.77;;;19.90;99.90;;;;;;5083793;28;20047;-80
2023/06/07 11:11:45;;;;;;;4.18;1.55;;;19.90;99.90;;;;;;5073935;28;20496;-81
2023/06/07 11:14:27;;;;;;;7.60;1.38;;;19.50;99.90;;;;;;5101755;28;20148;-85
2023/06/07 11:17:04;;;;;;;9.60;1.63;;;19.70;99.90;;;;;;5093067;28;20039;-82
2023/06/07 11:20:14;;;;;;;5.50;1.40;;;19.40;99.90;;;;;;5092759;28;20040;-82
2023/06/07 11:23:26;;;;;;;6.43;1.50;;;19.90;99.90;;;;;;5093067;28;20376;-83
2023/06/07 11:25:59;;;;;;;6.53;1.58;;;19.70;99.90;;;;;;5092705;28;20040;-82
2023/06/07 11:28:38;;;;;;;;;;;19.80;99.90;;;;;;5092432;28;20523;-83
2023/06/07 11:31:18;;;;;;;6.30;1.40;;;19.90;99.90;;;;;;5105672;28;19926;-82
2023/06/07 11:33:58;;;;;;;6.95;1.42;;;19.90;99.90;;;;;;5112174;28;20480;-83
2023/06/07 11:36:36;;;;;;;6.70;1.63;;;19.90;99.90;;;;;;5103895;28;20085;-81
2023/06/07 11:39:16;;;;;;;4.65;1.13;;;19.80;99.90;;;;;;5101946;28;20100;-81
2023/06/07 11:41:55;;;;;;;6.43;1.38;;;20.00;99.90;;;;;;5113029;28;20040;-82
2023/06/07 11:44:44;;;;;;;6.70;1.83;;;20.10;99.90;;;;;;5113266;28;20040;-81
2023/06/07 12:06:27;;;;;;;5.22;1.88;;;21.00;99.90;;;;;;5091240;28;20097;-82
2023/06/07 12:09:04;;;;;;;8.85;1.50;;;21.00;99.90;;;;;;5052113;28;20045;-81
2023/06/07 12:11:46;;;;;;;4.45;1.63;;;20.80;99.90;;;;;;5052317;28;20142;-81
2023/06/07 12:14:41;;;;;;;5.80;2.40;;;20.90;99.90;;;;;;5051083;28;20081;-81
2023/06/07 12:17:34;;;;;;;5.65;1.83;;;20.30;99.90;;;;;;5057854;28;20369;-84
2023/06/07 12:20:18;;;;;;;6.18;1.58;;;20.70;99.90;;;;;;5072157;28;20439;-84
2023/06/07 12:23:11;;;;;;;4.68;1.50;;;20.80;99.90;;;;;;5071108;28;20048;-82
2023/06/07 12:25:44;;;;;;;5.45;1.50;;;20.50;99.90;;;;;;5071002;28;20048;-84
2023/06/07 12:35:50;;;;;;;5.53;1.70;;;20.60;99.90;;;;;;5070436;28;20082;-82
2023/06/07 12:38:28;;;;;;;8.43;1.45;;;20.80;99.90;;;;;;5051431;28;20045;-82
2023/06/07 12:40:58;;;;;;;5.18;1.50;;;20.70;99.90;;;;;;5050860;28;20052;-85
2023/06/07 12:43:28;;;;;;;7.47;1.60;;;20.80;99.90;;;;;;5051939;28;20444;-83
2023/06/07 12:46:09;;;;;;;3.72;1.30;;;20.50;99.90;;;;;;5053610;28;20095;-82
2023/06/07 12:48:50;;;;;;;6.55;1.60;;;20.70;99.90;;;;;;5054146;28;20371;-83
2023/06/07 12:51:34;;;;;;;9.85;2.53;;;21.10;99.90;;;;;;5054433;28;20082;-82
2023/06/07 12:54:17;;;;;;;8.38;2.33;;;20.80;99.90;;;;;;5055847;28;20375;-81
2023/06/07 13:07:53;;;;;;;5.65;1.60;;;20.60;99.90;;;;;;5074900;28;20097;-83
2023/06/07 13:10:31;;;;;;;7.03;2.28;;;20.70;99.90;;;;;;5077401;28;20119;-83
2023/06/07 13:13:13;;;;;;;6.35;1.88;;;20.80;99.90;;;;;;5094554;28;20048;-82
2023/06/07 13:15:48;;;;;;;6.70;2.00;;;21.00;99.90;;;;;;5077282;28;20532;-84
2023/06/07 13:18:30;;;;;;;6.35;1.88;;;21.10;99.90;;;;;;5078581;28;20039;-82
2023/06/07 13:21:12;;;;;;;7.50;1.40;;;21.20;99.90;;;;;;5077070;28;20076;-83
2023/06/07 13:23:47;;;;;;;7.88;2.08;;;21.30;99.90;;;;;;5076951;28;20052;-81
2023/06/07 13:26:27;;;;;;;6.78;1.90;;;21.30;99.90;;;;;;5073493;28;20362;-82
2023/06/07 13:28:55;;;;;;;7.50;1.65;;;20.90;99.90;;;;;;5078038;28;20046;-82
2023/06/07 13:31:35;;;;;;;8.07;1.70;;;21.10;99.90;;;;;;5077128;28;20048;-82
2023/06/07 13:34:14;;;;;;;5.20;1.55;;;20.80;99.90;;;;;;5094698;28;20177;-82
2023/06/07 13:36:55;;;;;;;6.53;2.33;;;20.90;99.90;;;;;;5077121;28;20043;-83
2023/06/07 13:39:25;;;;;;;5.80;1.83;;;21.20;99.90;;;;;;5096054;28;20052;-82
2023/06/07 13:42:05;;;;;;;4.82;1.60;;;20.70;99.90;;;;;;5096487;28;20052;-84
2023/06/07 13:44:49;;;;;;;3.97;1.75;;;21.00;99.90;;;;;;5114417;28;20052;-83
2023/06/07 13:47:28;;;;;;;8.40;1.65;;;21.00;99.90;;;;;;5098342;28;20507;-83
2023/06/07 14:12:32;;;;;;;10.85;1.80;;;20.90;99.90;;;;;;5083914;28;20082;-82
2023/06/07 14:15:12;;;;;;;5.47;1.58;;;20.80;99.90;;;;;;5092504;28;20056;-82
2023/06/07 14:17:51;;;;;;;5.57;1.70;;;20.80;99.90;;;;;;5076192;28;20512;-86
2023/06/07 14:20:26;;;;;;;6.13;1.70;;;20.60;99.90;;;;;;5041745;28;20471;-83
2023/06/07 14:23:04;;;;;;;7.10;2.22;;;20.80;99.90;;;;;;5093732;28;20423;-84
2023/06/07 14:25:52;;;;;;;6.38;2.08;;;20.70;99.90;;;;;;5105098;28;20051;-88
2023/06/07 14:28:26;;;;;;;10.38;2.97;;;20.80;99.90;;;;;;5092630;28;20432;-84
2023/06/07 14:31:10;;;;;;;5.75;2.38;;;20.80;99.90;;;;;;5103665;28;20055;-82
2023/06/07 14:33:50;;;;;;;7.68;1.92;;;20.40;99.90;;;;;;5113470;28;20043;-84
2023/06/07 14:36:42;;;;;;;11.30;2.47;;;20.70;99.90;;;;;;5113585;28;20047;-84
2023/06/07 14:39:28;;;;;;;5.82;2.17;;;20.30;99.90;;;;;;5113719;28;20121;-83
2023/06/07 14:42:10;;;;;;;7.35;1.80;;;20.40;99.90;;;;;;5093770;28;20122;-87
2023/06/07 14:44:47;;;;;;;7.07;1.67;;;20.20;99.90;;;;;;5098904;28;20392;-87
2023/06/07 14:47:26;;;;;;;9.40;2.00;;;20.50;99.90;;;;;;5093530;28;20044;-86
2023/06/07 14:50:01;;;;;;;8.10;2.03;;;20.50;99.90;;;;;;5093517;28;20040;-86
2023/06/07 15:07:41;;;;;;;8.60;1.80;;;20.10;99.90;;;;;;5104295;28;20449;-81
2023/06/07 15:10:12;;;;;;;6.05;1.90;;;20.40;99.90;;;;;;5074786;28;20060;-82
2023/06/07 15:12:43;;;;;;;11.13;1.85;;;20.40;99.90;;;;;;5101256;28;20055;-81
2023/06/07 15:15:21;;;;;;;7.23;1.80;;;20.30;99.90;;;;;;5112941;28;20048;-81
2023/06/07 15:18:04;;;;;;;6.00;1.88;;;20.30;99.90;;;;;;5080711;28;20293;-82
2023/06/07 15:20:54;;;;;;;8.45;2.08;;;20.00;99.90;;;;;;5074894;28;20463;-81
2023/06/07 15:23:32;;;;;;;7.00;1.75;;;20.00;99.90;;;;;;5076132;28;20047;-82
2023/06/07 15:59:19;;;;;;;7.55;2.28;;;19.50;99.90;;;;;;5112284;28;20117;-82
2023/06/07 16:02:04;;;;;;;7.32;2.10;;;19.00;99.90;;;;;;5095318;28;20096;-82
2023/06/07 16:04:50;;;;;;;8.88;1.88;;;19.10;99.90;;;;;;5112852;28;20092;-83
2023/06/07 16:07:27;;;;;;;4.63;1.80;;;19.50;99.90;;;;;;5094426;28;20050;-82
2023/06/07 16:10:17;;;;;;;6.05;1.67;;;19.10;99.90;;;;;;5096100;28;20081;-81
2023/06/07 16:12:57;;;;;;;8.27;1.80;;;19.40;99.90;;;;;;5059992;28;20450;-82
2023/06/07 16:15:33;;;;;;;6.93;1.85;;;18.90;99.90;;;;;;5111227;28;20427;-83
2023/06/07 17:06:12;;;;;;;5.10;1.55;;;17.50;99.90;;;;;;5095574;28;20047;-81
2023/06/07 17:08:43;;;;;;;7.78;2.05;;;17.60;99.90;;;;;;5095436;28;20036;-82
2023/06/07 17:11:17;;;;;;;9.02;2.40;;;17.40;99.90;;;;;;5077422;28;20094;-82
2023/06/07 17:13:56;;;;;;;6.80;2.00;;;17.40;99.90;;;;;;5073675;28;20055;-82
2023/06/07 17:16:42;;;;;;;7.70;2.17;;;17.30;99.90;;;;;;5075166;28;20105;-82
2023/06/07 17:19:16;;;;;;;4.72;1.70;;;17.00;99.90;;;;;;5075708;28;20128;-83
2023/06/07 17:22:02;;;;;;;6.13;2.17;;;17.00;99.90;;;;;;5075055;28;20044;-83
2023/06/07 17:24:47;;;;;;;10.73;2.40;;;16.50;99.90;;;;;;5075024;28;20102;-83
2023/06/07 18:00:46;;;;;;;7.75;2.10;;;14.80;99.90;;;;;;5083413;28;20090;-83
2023/06/07 18:03:29;;;;;;;8.65;2.08;;;14.80;99.90;;;;;;5074198;28;20408;-82
2023/06/07 18:06:15;;;;;;;7.45;2.35;;;14.70;99.90;;;;;;5074120;28;20484;-82
2023/06/07 18:08:48;;;;;;;3.33;1.90;;;14.80;99.90;;;;;;5038605;28;20049;-81
2023/06/07 18:11:29;;;;;;;11.65;2.08;;;14.90;99.90;;;;;;5073920;28;20528;-81
2023/06/07 18:14:07;;;;;;;6.80;1.55;;;14.90;99.90;;;;;;5072520;28;20102;-81
2023/06/07 18:16:45;;;;;;;7.53;2.47;;;14.90;99.90;;;;;;5073743;28;20053;-81
2023/06/07 18:19:54;;;;;;;10.63;2.92;;;14.60;99.90;;;;;;5071267;28;20056;-81
2023/06/07 18:22:34;;;;;;;7.43;1.98;;;14.60;99.90;;;;;;5073517;28;20052;-82
2023/06/07 18:25:14;;;;;;;5.70;1.83;;;14.40;99.90;;;;;;5073894;28;20040;-81
2023/06/07 18:27:44;;;;;;;19.33;3.55;;;14.30;99.90;;;;;;5058855;28;20404;-81
2023/06/07 18:30:20;;;;;;;7.00;2.28;;;14.10;99.90;;;;;;5084341;28;20036;-82
2023/06/07 18:32:58;;;;;;;8.60;3.08;;;14.10;99.90;;;;;;5075944;28;20134;-82
2023/06/07 18:35:32;;;;;;;9.73;3.65;;;14.00;99.90;;;;;;5074859;28;20119;-87
2023/06/07 18:38:23;;;;;;;11.20;2.42;;;14.20;99.90;;;;;;5074327;28;20079;-87
2023/06/07 18:40:59;;;;;;;6.97;1.77;;;14.10;99.90;;;;;;5074449;28;20049;-91
2023/06/07 18:43:41;;;;;;;6.93;2.03;;;14.00;99.90;;;;;;5072814;28;20051;-87
2023/06/07 18:46:15;;;;;;;4.43;2.00;;;14.10;99.90;;;;;;5073368;28;20546;-82
2023/06/07 18:48:57;;;;;;;8.75;2.17;;;14.00;99.90;;;;;;5072456;28;20056;-82
2023/06/07 18:51:34;;;;;;;10.15;2.55;;;13.90;99.90;;;;;;5076114;28;20051;-82
2023/06/07 18:54:14;;;;;;;6.25;1.90;;;13.80;99.90;;;;;;5081424;28;20045;-82
2023/06/07 18:56:41;;;;;;;6.00;2.00;;;13.70;99.90;;;;;;5082955;28;20044;-82
2023/06/07 18:59:09;;;;;;;7.28;1.75;;;13.60;99.90;;;;;;5073560;28;20113;-84
2023/06/07 19:01:35;;;;;;;6.65;1.90;;;13.50;99.90;;;;;;5072806;28;20448;-85
2023/06/07 19:04:04;;;;;;;8.02;2.40;;;13.50;99.90;;;;;;5072413;28;20131;-84
2023/06/07 19:06:34;;;;;;;5.22;1.80;;;13.40;99.90;;;;;;5072819;28;20037;-82
2023/06/07 19:09:09;;;;;;;7.00;2.53;;;13.30;99.90;;;;;;5072896;28;20040;-84
2023/06/07 19:11:36;;;;;;;6.95;1.90;;;13.20;99.90;;;;;;5071431;28;20484;-86
2023/06/07 19:14:04;;;;;;;3.42;1.90;;;13.10;99.90;;;;;;5080719;28;20092;-82
2023/06/07 19:16:33;;;;;;;7.15;2.10;;;13.10;99.90;;;;;;5075331;28;20070;-83
2023/06/07 19:18:59;;;;;;;4.85;1.80;;;13.10;99.90;;;;;;5092079;28;20105;-83
2023/06/07 19:25:06;;;;;;;7.97;2.15;;;12.90;99.90;;;;;;5096909;28;20499;-84
2023/06/07 19:27:32;;;;;;;5.93;1.90;;;12.90;99.90;;;;;;5093309;28;20502;-83
2023/06/07 19:29:58;;;;;;;5.35;2.05;;;12.80;99.90;;;;;;5097132;28;20047;-84
2023/06/07 19:32:26;;;;;;;4.60;1.95;;;12.90;99.90;;;;;;5110871;28;20059;-83
2023/06/07 19:34:56;;;;;;;4.13;1.80;;;12.90;99.90;;;;;;5113074;28;20071;-82
2023/06/07 19:37:25;;;;;;;4.93;2.55;;;12.80;99.90;;;;;;5112076;28;20039;-83
2023/06/07 19:39:52;;;;;;;6.40;1.70;;;12.80;99.90;;;;;;5077488;28;20040;-83
2023/06/07 19:42:25;;;;;;;8.25;2.92;;;12.80;99.90;;;;;;5112953;28;20040;-83
2023/06/07 19:45:39;;;;;;;10.50;2.30;;;12.70;99.90;;;;;;5112985;28;20052;-83
2023/06/07 19:48:05;;;;;;;7.43;1.92;;;12.70;99.90;;;;;;5096692;28;20039;-83
2023/06/07 19:50:32;;;;;;;4.40;2.00;;;12.80;99.90;;;;;;5074840;28;20043;-84
2023/06/07 19:53:02;;;;;;;6.15;2.05;;;12.80;99.90;;;;;;5101847;28;20369;-82
2023/06/07 19:55:28;;;;;;;11.45;2.40;;;12.80;99.90;;;;;;5094214;28;20047;-82
2023/06/07 19:57:55;;;;;;;12.82;2.38;;;12.70;99.90;;;;;;5096858;28;20040;-82
2023/06/07 20:00:22;;;;;;;5.65;2.00;;;12.60;99.90;;;;;;5096215;28;20058;-83
2023/06/07 20:02:49;;;;;;;5.07;1.60;;;12.70;99.90;;;;;;5103166;28;20040;-83